sensor_id;sensor_type;location;lat;lon;timestamp;temperature;humidity
35700;DHT22;21818;51.078;12.108;2023-05-07T00:01:35;17.10;79.90
35700;DHT22;21818;51.078;12.108;2023-05-07T00:04:01;17.10;80.00
35700;DHT22;21818;51.078;12.108;2023-05-07T00:06:27;17.00;80.10
35700;DHT22;21818;51.078;12.108;2023-05-07T00:08:54;17.00;80.00
35700;DHT22;21818;51.078;12.108;2023-05-07T00:11:20;17.10;80.00
35700;DHT22;21818;51.078;12.108;2023-05-07T00:13:45;17.00;80.00
35700;DHT22;21818;51.078;12.108;2023-05-07T00:16:11;17.00;80.00
35700;DHT22;21818;51.078;12.108;2023-05-07T00:18:37;17.00;80.00
35700;DHT22;21818;51.078;12.108;2023-05-07T00:21:02;17.00;80.00
35700;DHT22;21818;51.078;12.108;2023-05-07T00:23:28;17.10;80.00
35700;DHT22;21818;51.078;12.108;2023-05-07T00:25:53;17.20;80.00
35700;DHT22;21818;51.078;12.108;2023-05-07T00:28:19;17.10;80.00
35700;DHT22;21818;51.078;12.108;2023-05-07T00:30:44;17.10;80.10
35700;DHT22;21818;51.078;12.108;2023-05-07T00:33:10;17.10;80.20
35700;DHT22;21818;51.078;12.108;2023-05-07T00:35:36;17.10;80.40
35700;DHT22;21818;51.078;12.108;2023-05-07T00:38:01;17.10;80.60
35700;DHT22;21818;51.078;12.108;2023-05-07T00:40:27;17.10;80.40
35700;DHT22;21818;51.078;12.108;2023-05-07T00:42:52;17.20;80.30
35700;DHT22;21818;51.078;12.108;2023-05-07T00:45:26;17.20;80.20
35700;DHT22;21818;51.078;12.108;2023-05-07T00:47:58;17.20;80.20
35700;DHT22;21818;51.078;12.108;2023-05-07T00:50:25;17.20;80.30
35700;DHT22;21818;51.078;12.108;2023-05-07T00:52:51;17.20;80.20
35700;DHT22;21818;51.078;12.108;2023-05-07T00:55:17;17.20;80.20
35700;DHT22;21818;51.078;12.108;2023-05-07T00:57:43;17.30;80.10
35700;DHT22;21818;51.078;12.108;2023-05-07T01:00:10;17.30;80.20
35700;DHT22;21818;51.078;12.108;2023-05-07T01:02:38;17.30;80.20
35700;DHT22;21818;51.078;12.108;2023-05-07T01:05:05;17.20;80.30
35700;DHT22;21818;51.078;12.108;2023-05-07T01:07:32;17.20;80.40
35700;DHT22;21818;51.078;12.108;2023-05-07T01:09:58;17.10;80.60
35700;DHT22;21818;51.078;12.108;2023-05-07T01:12:25;17.10;80.80
35700;DHT22;21818;51.078;12.108;2023-05-07T01:14:51;17.00;80.60
35700;DHT22;21818;51.078;12.108;2023-05-07T01:17:17;17.00;80.70
35700;DHT22;21818;51.078;12.108;2023-05-07T01:19:43;17.00;81.40
35700;DHT22;21818;51.078;12.108;2023-05-07T01:22:10;17.00;81.40
35700;DHT22;21818;51.078;12.108;2023-05-07T01:24:40;17.00;80.70
35700;DHT22;21818;51.078;12.108;2023-05-07T01:27:06;17.00;80.70
35700;DHT22;21818;51.078;12.108;2023-05-07T01:29:32;17.10;80.60
35700;DHT22;21818;51.078;12.108;2023-05-07T01:31:59;17.00;80.60
35700;DHT22;21818;51.078;12.108;2023-05-07T01:34:27;16.90;80.70
35700;DHT22;21818;51.078;12.108;2023-05-07T01:36:56;16.90;80.90
35700;DHT22;21818;51.078;12.108;2023-05-07T01:39:25;16.90;80.90
35700;DHT22;21818;51.078;12.108;2023-05-07T01:41:54;16.90;80.90
35700;DHT22;21818;51.078;12.108;2023-05-07T01:44:20;16.90;80.90
35700;DHT22;21818;51.078;12.108;2023-05-07T01:46:47;16.90;80.90
35700;DHT22;21818;51.078;12.108;2023-05-07T01:49:13;16.90;80.90
35700;DHT22;21818;51.078;12.108;2023-05-07T01:51:39;16.80;80.90
35700;DHT22;21818;51.078;12.108;2023-05-07T01:54:05;16.90;80.90
35700;DHT22;21818;51.078;12.108;2023-05-07T01:56:32;16.80;80.90
35700;DHT22;21818;51.078;12.108;2023-05-07T01:58:57;16.80;81.10
35700;DHT22;21818;51.078;12.108;2023-05-07T02:01:23;16.70;81.10
35700;DHT22;21818;51.078;12.108;2023-05-07T02:03:49;16.70;81.10
35700;DHT22;21818;51.078;12.108;2023-05-07T02:06:14;16.70;81.10
35700;DHT22;21818;51.078;12.108;2023-05-07T02:08:40;16.80;81.10
35700;DHT22;21818;51.078;12.108;2023-05-07T02:11:06;16.70;81.10
35700;DHT22;21818;51.078;12.108;2023-05-07T02:13:32;16.70;81.10
35700;DHT22;21818;51.078;12.108;2023-05-07T02:15:58;16.70;81.20
35700;DHT22;21818;51.078;12.108;2023-05-07T02:18:24;16.70;81.20
35700;DHT22;21818;51.078;12.108;2023-05-07T02:20:50;16.70;81.20
35700;DHT22;21818;51.078;12.108;2023-05-07T02:23:15;16.60;81.20
35700;DHT22;21818;51.078;12.108;2023-05-07T02:25:41;16.60;81.20
35700;DHT22;21818;51.078;12.108;2023-05-07T02:28:06;16.60;81.30
35700;DHT22;21818;51.078;12.108;2023-05-07T02:30:32;16.60;81.40
35700;DHT22;21818;51.078;12.108;2023-05-07T02:32:58;16.60;81.30
35700;DHT22;21818;51.078;12.108;2023-05-07T02:35:26;16.60;81.40
35700;DHT22;21818;51.078;12.108;2023-05-07T02:37:52;16.50;81.50
35700;DHT22;21818;51.078;12.108;2023-05-07T02:40:18;16.50;81.50
35700;DHT22;21818;51.078;12.108;2023-05-07T02:42:43;16.50;81.50
35700;DHT22;21818;51.078;12.108;2023-05-07T02:45:09;16.50;81.50
35700;DHT22;21818;51.078;12.108;2023-05-07T02:47:35;16.50;81.70
35700;DHT22;21818;51.078;12.108;2023-05-07T02:50:00;16.40;81.70
35700;DHT22;21818;51.078;12.108;2023-05-07T02:52:26;16.40;81.80
35700;DHT22;21818;51.078;12.108;2023-05-07T02:54:51;16.40;81.90
35700;DHT22;21818;51.078;12.108;2023-05-07T02:57:17;16.40;81.90
35700;DHT22;21818;51.078;12.108;2023-05-07T02:59:43;16.30;81.90
35700;DHT22;21818;51.078;12.108;2023-05-07T03:02:09;16.30;81.90
35700;DHT22;21818;51.078;12.108;2023-05-07T03:04:35;16.30;81.90
35700;DHT22;21818;51.078;12.108;2023-05-07T03:07:00;16.40;81.90
35700;DHT22;21818;51.078;12.108;2023-05-07T03:09:26;16.40;81.80
35700;DHT22;21818;51.078;12.108;2023-05-07T03:11:51;16.40;81.90
35700;DHT22;21818;51.078;12.108;2023-05-07T03:14:17;16.40;82.00
35700;DHT22;21818;51.078;12.108;2023-05-07T03:16:42;16.40;82.10
35700;DHT22;21818;51.078;12.108;2023-05-07T03:19:08;16.40;82.10
35700;DHT22;21818;51.078;12.108;2023-05-07T03:21:33;16.30;82.20
35700;DHT22;21818;51.078;12.108;2023-05-07T03:24:00;16.30;82.30
35700;DHT22;21818;51.078;12.108;2023-05-07T03:26:25;16.30;82.40
35700;DHT22;21818;51.078;12.108;2023-05-07T03:28:51;16.30;82.40
35700;DHT22;21818;51.078;12.108;2023-05-07T03:31:17;16.20;82.30
35700;DHT22;21818;51.078;12.108;2023-05-07T03:33:54;16.20;82.40
35700;DHT22;21818;51.078;12.108;2023-05-07T03:36:20;16.20;82.50
35700;DHT22;21818;51.078;12.108;2023-05-07T03:38:46;16.10;82.40
35700;DHT22;21818;51.078;12.108;2023-05-07T03:41:12;16.10;82.50
35700;DHT22;21818;51.078;12.108;2023-05-07T03:43:37;16.10;82.50
35700;DHT22;21818;51.078;12.108;2023-05-07T03:46:03;16.10;82.40
35700;DHT22;21818;51.078;12.108;2023-05-07T03:48:28;16.10;82.40
35700;DHT22;21818;51.078;12.108;2023-05-07T03:50:54;16.10;82.50
35700;DHT22;21818;51.078;12.108;2023-05-07T03:53:19;16.20;82.40
35700;DHT22;21818;51.078;12.108;2023-05-07T03:55:45;16.10;82.90
35700;DHT22;21818;51.078;12.108;2023-05-07T03:58:10;16.10;82.50
35700;DHT22;21818;51.078;12.108;2023-05-07T04:00:36;16.10;82.40
35700;DHT22;21818;51.078;12.108;2023-05-07T04:03:04;16.10;82.30
35700;DHT22;21818;51.078;12.108;2023-05-07T04:05:30;16.10;82.30
35700;DHT22;21818;51.078;12.108;2023-05-07T04:07:58;16.10;82.30
35700;DHT22;21818;51.078;12.108;2023-05-07T04:10:24;16.10;82.30
35700;DHT22;21818;51.078;12.108;2023-05-07T04:12:49;16.10;82.40
35700;DHT22;21818;51.078;12.108;2023-05-07T04:15:15;16.10;82.40
35700;DHT22;21818;51.078;12.108;2023-05-07T04:17:40;16.10;82.50
35700;DHT22;21818;51.078;12.108;2023-05-07T04:20:09;16.00;82.60
35700;DHT22;21818;51.078;12.108;2023-05-07T04:22:35;16.00;82.60
35700;DHT22;21818;51.078;12.108;2023-05-07T04:25:01;16.00;82.60
35700;DHT22;21818;51.078;12.108;2023-05-07T04:27:27;16.00;82.60
35700;DHT22;21818;51.078;12.108;2023-05-07T04:29:53;16.10;82.50
35700;DHT22;21818;51.078;12.108;2023-05-07T04:32:21;16.10;82.60
35700;DHT22;21818;51.078;12.108;2023-05-07T04:34:46;16.10;82.70
35700;DHT22;21818;51.078;12.108;2023-05-07T04:37:12;16.10;82.60
35700;DHT22;21818;51.078;12.108;2023-05-07T04:39:37;16.10;82.70
35700;DHT22;21818;51.078;12.108;2023-05-07T04:42:03;16.10;82.60
35700;DHT22;21818;51.078;12.108;2023-05-07T04:44:28;16.10;82.60
35700;DHT22;21818;51.078;12.108;2023-05-07T04:46:56;16.10;82.50
35700;DHT22;21818;51.078;12.108;2023-05-07T04:49:22;16.10;82.60
35700;DHT22;21818;51.078;12.108;2023-05-07T04:51:47;16.10;82.60
35700;DHT22;21818;51.078;12.108;2023-05-07T04:54:13;16.10;82.50
35700;DHT22;21818;51.078;12.108;2023-05-07T04:56:38;16.10;82.50
35700;DHT22;21818;51.078;12.108;2023-05-07T04:59:04;16.10;82.50
35700;DHT22;21818;51.078;12.108;2023-05-07T05:01:31;16.10;82.40
35700;DHT22;21818;51.078;12.108;2023-05-07T05:03:56;16.10;82.30
35700;DHT22;21818;51.078;12.108;2023-05-07T05:06:22;16.10;82.90
35700;DHT22;21818;51.078;12.108;2023-05-07T05:08:47;16.10;82.30
35700;DHT22;21818;51.078;12.108;2023-05-07T05:11:13;16.10;82.30
35700;DHT22;21818;51.078;12.108;2023-05-07T05:13:39;16.10;82.30
35700;DHT22;21818;51.078;12.108;2023-05-07T05:16:05;16.10;82.20
35700;DHT22;21818;51.078;12.108;2023-05-07T05:18:31;16.10;82.10
35700;DHT22;21818;51.078;12.108;2023-05-07T05:20:56;16.10;82.00
35700;DHT22;21818;51.078;12.108;2023-05-07T05:23:22;16.10;82.00
35700;DHT22;21818;51.078;12.108;2023-05-07T05:25:47;16.10;82.00
35700;DHT22;21818;51.078;12.108;2023-05-07T05:28:13;16.10;81.90
35700;DHT22;21818;51.078;12.108;2023-05-07T05:30:39;16.10;81.80
35700;DHT22;21818;51.078;12.108;2023-05-07T05:33:04;16.20;81.70
35700;DHT22;21818;51.078;12.108;2023-05-07T05:35:30;16.20;81.70
35700;DHT22;21818;51.078;12.108;2023-05-07T05:37:56;16.20;81.60
35700;DHT22;21818;51.078;12.108;2023-05-07T05:40:21;16.20;81.50
35700;DHT22;21818;51.078;12.108;2023-05-07T05:42:47;16.20;81.40
35700;DHT22;21818;51.078;12.108;2023-05-07T05:45:12;16.30;81.40
35700;DHT22;21818;51.078;12.108;2023-05-07T05:47:38;16.30;81.30
35700;DHT22;21818;51.078;12.108;2023-05-07T05:50:06;16.30;81.30
35700;DHT22;21818;51.078;12.108;2023-05-07T05:52:31;16.40;81.10
35700;DHT22;21818;51.078;12.108;2023-05-07T05:54:57;16.50;81.00
35700;DHT22;21818;51.078;12.108;2023-05-07T05:57:22;16.50;80.90
35700;DHT22;21818;51.078;12.108;2023-05-07T05:59:48;16.60;80.80
35700;DHT22;21818;51.078;12.108;2023-05-07T06:02:14;16.60;80.70
35700;DHT22;21818;51.078;12.108;2023-05-07T06:04:39;16.70;80.50
35700;DHT22;21818;51.078;12.108;2023-05-07T06:07:05;16.70;80.40
35700;DHT22;21818;51.078;12.108;2023-05-07T06:09:30;16.70;80.40
35700;DHT22;21818;51.078;12.108;2023-05-07T06:11:56;16.70;81.00
35700;DHT22;21818;51.078;12.108;2023-05-07T06:14:22;16.70;80.40
35700;DHT22;21818;51.078;12.108;2023-05-07T06:16:47;16.70;80.30
35700;DHT22;21818;51.078;12.108;2023-05-07T06:19:13;16.70;80.30
35700;DHT22;21818;51.078;12.108;2023-05-07T06:21:39;16.70;80.30
35700;DHT22;21818;51.078;12.108;2023-05-07T06:24:05;16.70;80.20
35700;DHT22;21818;51.078;12.108;2023-05-07T06:26:31;16.70;80.20
35700;DHT22;21818;51.078;12.108;2023-05-07T06:28:56;16.60;80.20
35700;DHT22;21818;51.078;12.108;2023-05-07T06:31:22;16.60;80.20
35700;DHT22;21818;51.078;12.108;2023-05-07T06:33:48;16.60;80.10
35700;DHT22;21818;51.078;12.108;2023-05-07T06:36:14;16.60;80.00
35700;DHT22;21818;51.078;12.108;2023-05-07T06:38:39;16.60;80.00
35700;DHT22;21818;51.078;12.108;2023-05-07T06:41:08;16.60;80.10
35700;DHT22;21818;51.078;12.108;2023-05-07T06:43:33;16.70;80.00
35700;DHT22;21818;51.078;12.108;2023-05-07T06:45:59;16.70;79.90
35700;DHT22;21818;51.078;12.108;2023-05-07T06:48:25;16.70;79.90
35700;DHT22;21818;51.078;12.108;2023-05-07T06:50:50;16.70;79.80
35700;DHT22;21818;51.078;12.108;2023-05-07T06:53:16;16.70;79.90
35700;DHT22;21818;51.078;12.108;2023-05-07T06:55:41;16.70;79.80
35700;DHT22;21818;51.078;12.108;2023-05-07T06:58:07;16.70;79.70
35700;DHT22;21818;51.078;12.108;2023-05-07T07:00:33;16.70;79.70
35700;DHT22;21818;51.078;12.108;2023-05-07T07:02:58;16.80;79.60
35700;DHT22;21818;51.078;12.108;2023-05-07T07:05:25;16.80;79.60
35700;DHT22;21818;51.078;12.108;2023-05-07T07:07:50;16.80;79.60
35700;DHT22;21818;51.078;12.108;2023-05-07T07:10:23;16.80;79.60
35700;DHT22;21818;51.078;12.108;2023-05-07T07:12:50;16.80;79.50
35700;DHT22;21818;51.078;12.108;2023-05-07T07:15:15;16.80;79.50
35700;DHT22;21818;51.078;12.108;2023-05-07T07:17:42;16.80;79.40
35700;DHT22;21818;51.078;12.108;2023-05-07T07:20:08;16.80;79.40
35700;DHT22;21818;51.078;12.108;2023-05-07T07:22:33;16.80;79.30
35700;DHT22;21818;51.078;12.108;2023-05-07T07:24:59;16.80;79.40
35700;DHT22;21818;51.078;12.108;2023-05-07T07:27:24;16.80;79.40
35700;DHT22;21818;51.078;12.108;2023-05-07T07:29:51;16.80;79.40
35700;DHT22;21818;51.078;12.108;2023-05-07T07:32:16;16.80;79.30
35700;DHT22;21818;51.078;12.108;2023-05-07T07:34:42;16.90;79.20
35700;DHT22;21818;51.078;12.108;2023-05-07T07:37:07;16.90;79.20
35700;DHT22;21818;51.078;12.108;2023-05-07T07:39:33;16.90;79.00
35700;DHT22;21818;51.078;12.108;2023-05-07T07:41:59;16.90;79.00
35700;DHT22;21818;51.078;12.108;2023-05-07T07:44:25;16.90;79.00
35700;DHT22;21818;51.078;12.108;2023-05-07T07:46:51;16.90;79.10
35700;DHT22;21818;51.078;12.108;2023-05-07T07:49:16;16.90;79.10
35700;DHT22;21818;51.078;12.108;2023-05-07T07:51:42;16.90;79.10
35700;DHT22;21818;51.078;12.108;2023-05-07T07:54:08;16.90;79.00
35700;DHT22;21818;51.078;12.108;2023-05-07T07:56:34;16.90;78.80
35700;DHT22;21818;51.078;12.108;2023-05-07T07:59:00;16.90;78.80
35700;DHT22;21818;51.078;12.108;2023-05-07T08:01:25;16.90;78.70
35700;DHT22;21818;51.078;12.108;2023-05-07T08:03:51;16.90;78.60
35700;DHT22;21818;51.078;12.108;2023-05-07T08:06:17;16.90;78.70
35700;DHT22;21818;51.078;12.108;2023-05-07T08:08:43;16.90;78.70
35700;DHT22;21818;51.078;12.108;2023-05-07T08:11:08;16.90;78.70
35700;DHT22;21818;51.078;12.108;2023-05-07T08:13:34;16.90;78.70
35700;DHT22;21818;51.078;12.108;2023-05-07T08:16:00;16.90;78.80
35700;DHT22;21818;51.078;12.108;2023-05-07T08:18:26;16.90;78.70
35700;DHT22;21818;51.078;12.108;2023-05-07T08:20:53;16.90;78.70
35700;DHT22;21818;51.078;12.108;2023-05-07T08:23:19;17.00;78.50
35700;DHT22;21818;51.078;12.108;2023-05-07T08:25:44;17.00;78.30
35700;DHT22;21818;51.078;12.108;2023-05-07T08:28:10;17.10;78.30
35700;DHT22;21818;51.078;12.108;2023-05-07T08:30:36;17.00;78.20
35700;DHT22;21818;51.078;12.108;2023-05-07T08:33:01;17.10;78.20
35700;DHT22;21818;51.078;12.108;2023-05-07T08:35:27;17.10;78.10
35700;DHT22;21818;51.078;12.108;2023-05-07T08:37:53;17.10;78.00
35700;DHT22;21818;51.078;12.108;2023-05-07T08:40:19;17.20;78.00
35700;DHT22;21818;51.078;12.108;2023-05-07T08:42:48;17.20;77.90
35700;DHT22;21818;51.078;12.108;2023-05-07T08:45:15;17.20;77.80
35700;DHT22;21818;51.078;12.108;2023-05-07T08:47:43;17.20;77.90
35700;DHT22;21818;51.078;12.108;2023-05-07T08:50:11;17.20;77.70
35700;DHT22;21818;51.078;12.108;2023-05-07T08:52:37;17.30;77.60
35700;DHT22;21818;51.078;12.108;2023-05-07T08:55:03;17.30;77.40
35700;DHT22;21818;51.078;12.108;2023-05-07T08:57:29;17.30;77.50
35700;DHT22;21818;51.078;12.108;2023-05-07T08:59:55;17.30;77.40
35700;DHT22;21818;51.078;12.108;2023-05-07T09:02:20;17.30;77.30
35700;DHT22;21818;51.078;12.108;2023-05-07T09:04:46;17.30;77.20
35700;DHT22;21818;51.078;12.108;2023-05-07T09:07:11;17.30;77.20
35700;DHT22;21818;51.078;12.108;2023-05-07T09:09:37;17.30;77.00
35700;DHT22;21818;51.078;12.108;2023-05-07T09:12:03;17.30;76.90
35700;DHT22;21818;51.078;12.108;2023-05-07T09:14:29;17.30;76.80
35700;DHT22;21818;51.078;12.108;2023-05-07T09:16:56;17.40;76.80
35700;DHT22;21818;51.078;12.108;2023-05-07T09:19:23;17.40;76.60
35700;DHT22;21818;51.078;12.108;2023-05-07T09:21:49;17.50;76.50
35700;DHT22;21818;51.078;12.108;2023-05-07T09:24:17;17.50;76.40
35700;DHT22;21818;51.078;12.108;2023-05-07T09:26:43;17.60;76.30
35700;DHT22;21818;51.078;12.108;2023-05-07T09:29:10;17.60;76.10
35700;DHT22;21818;51.078;12.108;2023-05-07T09:31:37;17.70;76.00
35700;DHT22;21818;51.078;12.108;2023-05-07T09:34:04;17.70;75.90
35700;DHT22;21818;51.078;12.108;2023-05-07T09:36:31;17.70;75.70
35700;DHT22;21818;51.078;12.108;2023-05-07T09:38:59;17.80;75.50
35700;DHT22;21818;51.078;12.108;2023-05-07T09:41:26;17.80;75.50
35700;DHT22;21818;51.078;12.108;2023-05-07T09:43:55;17.70;75.40
35700;DHT22;21818;51.078;12.108;2023-05-07T09:46:27;17.70;75.50
35700;DHT22;21818;51.078;12.108;2023-05-07T09:48:57;17.70;75.30
35700;DHT22;21818;51.078;12.108;2023-05-07T09:51:29;17.70;75.40
35700;DHT22;21818;51.078;12.108;2023-05-07T09:53:56;17.70;75.30
35700;DHT22;21818;51.078;12.108;2023-05-07T09:56:22;17.70;75.30
35700;DHT22;21818;51.078;12.108;2023-05-07T09:58:49;17.70;75.30
35700;DHT22;21818;51.078;12.108;2023-05-07T10:01:17;17.70;75.20
35700;DHT22;21818;51.078;12.108;2023-05-07T10:03:45;17.70;75.00
35700;DHT22;21818;51.078;12.108;2023-05-07T10:06:12;17.70;74.90
35700;DHT22;21818;51.078;12.108;2023-05-07T10:08:38;17.80;74.90
35700;DHT22;21818;51.078;12.108;2023-05-07T10:11:05;17.80;74.80
35700;DHT22;21818;51.078;12.108;2023-05-07T10:13:34;17.90;74.70
35700;DHT22;21818;51.078;12.108;2023-05-07T10:16:02;17.80;74.60
35700;DHT22;21818;51.078;12.108;2023-05-07T10:18:30;17.90;74.50
35700;DHT22;21818;51.078;12.108;2023-05-07T10:21:23;17.90;74.50
35700;DHT22;21818;51.078;12.108;2023-05-07T10:23:50;17.90;74.30
35700;DHT22;21818;51.078;12.108;2023-05-07T10:26:20;17.90;74.30
35700;DHT22;21818;51.078;12.108;2023-05-07T10:28:53;18.00;74.20
35700;DHT22;21818;51.078;12.108;2023-05-07T10:34:18;18.00;74.20
35700;DHT22;21818;51.078;12.108;2023-05-07T10:36:45;18.00;74.10
35700;DHT22;21818;51.078;12.108;2023-05-07T10:39:10;18.00;74.00
35700;DHT22;21818;51.078;12.108;2023-05-07T10:41:36;18.00;74.00
35700;DHT22;21818;51.078;12.108;2023-05-07T10:44:02;18.00;73.90
35700;DHT22;21818;51.078;12.108;2023-05-07T10:46:28;18.10;73.80
35700;DHT22;21818;51.078;12.108;2023-05-07T10:51:26;18.10;73.80
35700;DHT22;21818;51.078;12.108;2023-05-07T10:54:19;18.10;73.70
35700;DHT22;21818;51.078;12.108;2023-05-07T10:56:44;18.10;73.40
35700;DHT22;21818;51.078;12.108;2023-05-07T11:01:55;18.10;73.50
35700;DHT22;21818;51.078;12.108;2023-05-07T11:04:23;18.10;73.50
35700;DHT22;21818;51.078;12.108;2023-05-07T11:15:09;18.30;73.00
35700;DHT22;21818;51.078;12.108;2023-05-07T11:20:20;18.30;72.90
35700;DHT22;21818;51.078;12.108;2023-05-07T11:22:47;18.30;72.90
35700;DHT22;21818;51.078;12.108;2023-05-07T11:25:17;18.20;72.80
35700;DHT22;21818;51.078;12.108;2023-05-07T11:27:44;18.20;72.80
35700;DHT22;21818;51.078;12.108;2023-05-07T11:30:16;18.30;72.90
35700;DHT22;21818;51.078;12.108;2023-05-07T11:32:42;18.30;72.70
35700;DHT22;21818;51.078;12.108;2023-05-07T11:35:08;18.30;72.60
35700;DHT22;21818;51.078;12.108;2023-05-07T11:37:34;18.30;72.70
35700;DHT22;21818;51.078;12.108;2023-05-07T11:40:09;18.30;72.70
35700;DHT22;21818;51.078;12.108;2023-05-07T11:42:40;18.30;72.70
35700;DHT22;21818;51.078;12.108;2023-05-07T11:45:08;18.30;73.30
35700;DHT22;21818;51.078;12.108;2023-05-07T11:47:34;18.30;72.60
35700;DHT22;21818;51.078;12.108;2023-05-07T11:50:04;18.30;72.60
35700;DHT22;21818;51.078;12.108;2023-05-07T11:52:31;18.30;72.40
35700;DHT22;21818;51.078;12.108;2023-05-07T11:54:59;18.30;72.50
35700;DHT22;21818;51.078;12.108;2023-05-07T11:57:25;18.30;72.40
35700;DHT22;21818;51.078;12.108;2023-05-07T11:59:58;18.40;72.40
35700;DHT22;21818;51.078;12.108;2023-05-07T12:02:24;18.30;72.40
35700;DHT22;21818;51.078;12.108;2023-05-07T12:04:53;18.30;72.30
35700;DHT22;21818;51.078;12.108;2023-05-07T12:07:19;18.30;72.40
35700;DHT22;21818;51.078;12.108;2023-05-07T12:09:45;18.30;72.30
35700;DHT22;21818;51.078;12.108;2023-05-07T12:12:11;18.30;72.20
35700;DHT22;21818;51.078;12.108;2023-05-07T12:14:40;18.30;72.30
35700;DHT22;21818;51.078;12.108;2023-05-07T12:17:10;18.20;72.20
35700;DHT22;21818;51.078;12.108;2023-05-07T12:19:37;18.20;72.20
35700;DHT22;21818;51.078;12.108;2023-05-07T12:22:03;18.20;72.20
35700;DHT22;21818;51.078;12.108;2023-05-07T12:24:41;18.20;72.30
35700;DHT22;21818;51.078;12.108;2023-05-07T12:27:06;18.30;72.30
35700;DHT22;21818;51.078;12.108;2023-05-07T12:29:32;18.30;72.20
35700;DHT22;21818;51.078;12.108;2023-05-07T12:31:58;18.30;72.00
35700;DHT22;21818;51.078;12.108;2023-05-07T12:34:24;18.30;71.90
35700;DHT22;21818;51.078;12.108;2023-05-07T12:36:49;18.30;71.90
35700;DHT22;21818;51.078;12.108;2023-05-07T12:39:15;18.30;71.90
35700;DHT22;21818;51.078;12.108;2023-05-07T12:44:22;18.30;71.90
35700;DHT22;21818;51.078;12.108;2023-05-07T12:46:47;18.30;71.90
35700;DHT22;21818;51.078;12.108;2023-05-07T12:49:13;18.30;71.80
35700;DHT22;21818;51.078;12.108;2023-05-07T12:51:39;18.40;71.80
35700;DHT22;21818;51.078;12.108;2023-05-07T12:54:04;18.40;71.70
35700;DHT22;21818;51.078;12.108;2023-05-07T12:56:36;18.40;71.70
35700;DHT22;21818;51.078;12.108;2023-05-07T12:59:02;18.40;71.60
35700;DHT22;21818;51.078;12.108;2023-05-07T13:01:31;18.40;71.60
35700;DHT22;21818;51.078;12.108;2023-05-07T13:04:00;18.40;71.60
35700;DHT22;21818;51.078;12.108;2023-05-07T13:06:26;18.40;71.50
35700;DHT22;21818;51.078;12.108;2023-05-07T13:08:52;18.50;71.40
35700;DHT22;21818;51.078;12.108;2023-05-07T13:11:17;18.50;71.20
35700;DHT22;21818;51.078;12.108;2023-05-07T13:13:43;18.50;71.30
35700;DHT22;21818;51.078;12.108;2023-05-07T13:16:10;18.50;71.30
35700;DHT22;21818;51.078;12.108;2023-05-07T13:18:37;18.60;71.30
35700;DHT22;21818;51.078;12.108;2023-05-07T13:21:03;18.60;71.20
35700;DHT22;21818;51.078;12.108;2023-05-07T13:23:29;18.70;71.00
35700;DHT22;21818;51.078;12.108;2023-05-07T13:25:54;18.80;70.90
35700;DHT22;21818;51.078;12.108;2023-05-07T13:28:21;18.90;70.90
35700;DHT22;21818;51.078;12.108;2023-05-07T13:30:47;18.90;70.70
35700;DHT22;21818;51.078;12.108;2023-05-07T13:33:13;19.10;70.30
35700;DHT22;21818;51.078;12.108;2023-05-07T13:35:39;19.20;70.10
35700;DHT22;21818;51.078;12.108;2023-05-07T13:38:05;19.40;70.00
35700;DHT22;21818;51.078;12.108;2023-05-07T13:40:30;19.40;69.80
35700;DHT22;21818;51.078;12.108;2023-05-07T13:42:59;19.40;69.80
35700;DHT22;21818;51.078;12.108;2023-05-07T13:45:27;19.30;69.80
35700;DHT22;21818;51.078;12.108;2023-05-07T13:47:54;19.20;69.40
35700;DHT22;21818;51.078;12.108;2023-05-07T13:50:20;19.20;70.00
35700;DHT22;21818;51.078;12.108;2023-05-07T13:52:46;19.20;70.00
35700;DHT22;21818;51.078;12.108;2023-05-07T13:55:17;19.20;70.00
35700;DHT22;21818;51.078;12.108;2023-05-07T13:57:43;19.20;69.80
35700;DHT22;21818;51.078;12.108;2023-05-07T14:00:09;19.30;69.60
35700;DHT22;21818;51.078;12.108;2023-05-07T14:02:35;19.30;69.40
35700;DHT22;21818;51.078;12.108;2023-05-07T14:05:00;19.30;69.30
35700;DHT22;21818;51.078;12.108;2023-05-07T14:07:26;19.30;69.30
35700;DHT22;21818;51.078;12.108;2023-05-07T14:09:51;19.40;69.10
35700;DHT22;21818;51.078;12.108;2023-05-07T14:12:17;19.60;68.70
35700;DHT22;21818;51.078;12.108;2023-05-07T14:14:42;19.90;68.20
35700;DHT22;21818;51.078;12.108;2023-05-07T14:17:08;20.20;67.60
35700;DHT22;21818;51.078;12.108;2023-05-07T14:19:33;20.50;67.10
35700;DHT22;21818;51.078;12.108;2023-05-07T14:21:59;20.70;66.80
35700;DHT22;21818;51.078;12.108;2023-05-07T14:24:25;20.80;66.40
35700;DHT22;21818;51.078;12.108;2023-05-07T14:26:50;20.90;66.30
35700;DHT22;21818;51.078;12.108;2023-05-07T14:29:16;21.10;66.00
35700;DHT22;21818;51.078;12.108;2023-05-07T14:31:44;21.10;65.80
35700;DHT22;21818;51.078;12.108;2023-05-07T14:34:10;21.00;65.70
35700;DHT22;21818;51.078;12.108;2023-05-07T14:36:36;20.90;65.80
35700;DHT22;21818;51.078;12.108;2023-05-07T14:39:01;20.90;65.70
35700;DHT22;21818;51.078;12.108;2023-05-07T14:41:27;20.90;65.50
35700;DHT22;21818;51.078;12.108;2023-05-07T14:43:53;20.90;65.30
35700;DHT22;21818;51.078;12.108;2023-05-07T14:46:19;20.90;65.40
35700;DHT22;21818;51.078;12.108;2023-05-07T14:48:45;20.90;65.30
35700;DHT22;21818;51.078;12.108;2023-05-07T14:51:11;21.20;64.90
35700;DHT22;21818;51.078;12.108;2023-05-07T14:53:37;21.60;64.10
35700;DHT22;21818;51.078;12.108;2023-05-07T14:56:03;22.00;63.70
35700;DHT22;21818;51.078;12.108;2023-05-07T14:58:28;22.30;63.20
35700;DHT22;21818;51.078;12.108;2023-05-07T15:00:54;22.10;63.20
35700;DHT22;21818;51.078;12.108;2023-05-07T15:03:20;21.90;63.60
35700;DHT22;21818;51.078;12.108;2023-05-07T15:05:45;21.70;63.90
35700;DHT22;21818;51.078;12.108;2023-05-07T15:08:11;21.70;63.80
35700;DHT22;21818;51.078;12.108;2023-05-07T15:10:37;21.90;63.50
35700;DHT22;21818;51.078;12.108;2023-05-07T15:13:07;22.10;63.10
35700;DHT22;21818;51.078;12.108;2023-05-07T15:15:32;22.10;62.90
35700;DHT22;21818;51.078;12.108;2023-05-07T15:17:58;22.00;62.80
35700;DHT22;21818;51.078;12.108;2023-05-07T15:20:25;22.10;62.70
35700;DHT22;21818;51.078;12.108;2023-05-07T15:22:51;22.30;62.40
35700;DHT22;21818;51.078;12.108;2023-05-07T15:25:17;22.40;62.00
35700;DHT22;21818;51.078;12.108;2023-05-07T15:27:42;22.60;61.80
35700;DHT22;21818;51.078;12.108;2023-05-07T15:30:08;22.80;61.60
35700;DHT22;21818;51.078;12.108;2023-05-07T15:32:35;22.70;61.50